Time;durP1;ratioP1;P1;durP2;ratioP2;P2;SDS_P1;SDS_P2;PMS_P1;PMS_P2;Temp;Humidity;BMP_temperature;BMP_pressure;BME280_temperature;BME280_humidity;BME280_pressure;Samples;Min_cycle;Max_cycle;Signal;HPM_P1;HPM_P2
2024/03/10 00:00:43;;;;;;;17.50;12.25;;;8.20;81.90;;;;;;5059040;28;20037;-61
2024/03/10 00:03:09;;;;;;;17.45;11.93;;;8.00;81.80;;;;;;5061312;28;20043;-61
2024/03/10 00:05:35;;;;;;;17.02;11.93;;;8.20;81.80;;;;;;5062535;28;20044;-60
2024/03/10 00:08:01;;;;;;;20.00;11.68;;;8.20;81.70;;;;;;5059852;28;20079;-61
2024/03/10 00:10:28;;;;;;;21.45;12.35;;;8.20;81.60;;;;;;5063715;28;20075;-60
2024/03/10 00:12:54;;;;;;;20.23;12.93;;;8.20;81.60;;;;;;5060152;28;20428;-62
2024/03/10 00:15:20;;;;;;;19.08;12.35;;;8.20;81.60;;;;;;5059791;28;20033;-60
2024/03/10 00:17:46;;;;;;;23.35;13.85;;;8.20;81.60;;;;;;5060981;28;20034;-60
2024/03/10 00:20:13;;;;;;;20.02;12.55;;;8.20;81.60;;;;;;5064381;28;20032;-61
2024/03/10 00:22:39;;;;;;;18.67;13.07;;;8.20;81.70;;;;;;5065119;28;20029;-61
2024/03/10 00:25:09;;;;;;;18.85;11.95;;;8.10;81.70;;;;;;5056509;28;20036;-60
2024/03/10 00:27:38;;;;;;;13.38;9.68;;;8.10;81.90;;;;;;5055904;28;20424;-61
2024/03/10 00:30:05;;;;;;;16.08;10.02;;;8.10;82.00;;;;;;5056141;28;20033;-60
2024/03/10 00:32:35;;;;;;;17.88;11.70;;;8.10;82.20;;;;;;5061659;28;20036;-60
2024/03/10 00:35:01;;;;;;;19.08;12.52;;;8.10;82.40;;;;;;5057612;28;20036;-60
2024/03/10 00:37:27;;;;;;;18.40;12.40;;;8.10;82.30;;;;;;5058286;28;20034;-61
2024/03/10 00:39:53;;;;;;;21.02;11.85;;;8.10;82.40;;;;;;5057570;28;20562;-60
2024/03/10 00:42:23;;;;;;;15.95;10.95;;;8.10;82.40;;;;;;5062476;28;20052;-61
2024/03/10 00:44:50;;;;;;;15.00;10.63;;;8.10;82.40;;;;;;5060246;28;20040;-62
2024/03/10 00:47:16;;;;;;;15.00;10.18;;;8.10;82.60;;;;;;5055055;28;20037;-61
2024/03/10 00:49:42;;;;;;;15.75;11.05;;;8.10;82.60;;;;;;5053227;28;20389;-61
2024/03/10 00:52:09;;;;;;;15.75;10.55;;;8.00;82.50;;;;;;5054027;28;20058;-61
2024/03/10 00:54:35;;;;;;;13.82;9.57;;;8.10;82.50;;;;;;5054260;28;20036;-60
2024/03/10 00:57:01;;;;;;;14.35;10.10;;;8.10;82.50;;;;;;5057643;28;20046;-61
2024/03/10 00:59:26;;;;;;;16.83;10.00;;;8.10;82.50;;;;;;5062042;28;20020;-61
2024/03/10 01:01:52;;;;;;;16.20;11.00;;;8.10;82.40;;;;;;5058107;28;20029;-61
2024/03/10 01:04:18;;;;;;;16.45;10.90;;;8.10;82.40;;;;;;5054734;28;20037;-62
2024/03/10 01:06:44;;;;;;;16.00;10.27;;;8.10;82.40;;;;;;5056365;28;20033;-62
2024/03/10 01:09:10;;;;;;;16.77;10.10;;;8.00;82.30;;;;;;5062139;28;20407;-60
2024/03/10 01:11:37;;;;;;;14.45;9.80;;;8.00;82.40;;;;;;5054584;28;20461;-60
2024/03/10 01:14:04;;;;;;;14.43;9.98;;;8.00;82.60;;;;;;5057750;28;20066;-59
2024/03/10 01:16:30;;;;;;;15.02;9.70;;;8.00;82.60;;;;;;5060012;28;20522;-61
2024/03/10 01:18:56;;;;;;;14.70;10.20;;;8.10;82.60;;;;;;5062802;28;20111;-62
2024/03/10 01:21:22;;;;;;;13.57;10.18;;;8.00;82.60;;;;;;5065854;28;20120;-61
2024/03/10 01:23:48;;;;;;;12.80;9.52;;;8.00;82.50;;;;;;5060455;28;20053;-61
2024/03/10 01:26:14;;;;;;;14.93;9.57;;;8.00;82.50;;;;;;5054831;28;20049;-60
2024/03/10 01:28:39;;;;;;;12.13;9.63;;;8.00;82.40;;;;;;5061194;28;20127;-61
2024/03/10 01:31:09;;;;;;;14.30;9.75;;;8.00;82.40;;;;;;5062147;28;20024;-61
2024/03/10 01:33:35;;;;;;;13.52;9.57;;;8.00;82.30;;;;;;5061495;28;20110;-60
2024/03/10 01:36:04;;;;;;;13.75;9.07;;;8.00;82.20;;;;;;5065146;28;20040;-60
2024/03/10 01:38:30;;;;;;;13.02;9.77;;;8.00;82.00;;;;;;5066079;28;20032;-62
2024/03/10 01:40:57;;;;;;;15.27;9.45;;;8.00;82.00;;;;;;5061063;28;20500;-60
2024/03/10 01:43:23;;;;;;;11.50;8.68;;;7.90;82.00;;;;;;5065084;28;20199;-62
2024/03/10 01:45:58;;;;;;;12.32;9.25;;;7.90;82.00;;;;;;5065249;28;20136;-62
2024/03/10 01:48:24;;;;;;;13.20;8.73;;;7.90;82.00;;;;;;5062940;28;20044;-62
2024/03/10 01:50:49;;;;;;;11.23;8.35;;;7.80;81.90;;;;;;5065764;28;20037;-59
2024/03/10 01:53:15;;;;;;;12.80;9.10;;;7.80;81.90;;;;;;5055786;28;20033;-61
2024/03/10 01:55:41;;;;;;;12.57;8.60;;;7.80;81.90;;;;;;5059526;28;20783;-61
2024/03/10 01:58:07;;;;;;;15.05;9.30;;;7.80;82.00;;;;;;5065013;28;20036;-61
2024/03/10 02:00:36;;;;;;;13.18;8.68;;;7.70;82.90;;;;;;5066140;28;20033;-59
2024/03/10 02:03:02;;;;;;;9.38;7.55;;;7.70;82.00;;;;;;5062792;28;20036;-60
2024/03/10 02:05:27;;;;;;;11.43;8.25;;;7.70;82.00;;;;;;5057646;28;20044;-61
2024/03/10 02:07:53;;;;;;;11.10;8.20;;;7.60;82.20;;;;;;5061639;28;20035;-62
2024/03/10 02:10:19;;;;;;;14.43;9.13;;;7.60;82.20;;;;;;5060099;28;20044;-62
2024/03/10 02:12:45;;;;;;;12.30;7.93;;;7.60;83.00;;;;;;5058661;28;20064;-62
2024/03/10 02:15:10;;;;;;;10.82;8.02;;;7.60;82.20;;;;;;5061263;28;20408;-60
2024/03/10 02:17:36;;;;;;;12.98;8.05;;;7.60;82.20;;;;;;5064796;28;20036;-60
2024/03/10 02:20:04;;;;;;;12.77;8.80;;;7.60;82.20;;;;;;5059639;28;20468;-60
2024/03/10 02:22:30;;;;;;;13.88;8.82;;;7.50;82.10;;;;;;5062853;28;20111;-62
2024/03/10 02:25:01;;;;;;;11.93;8.23;;;7.50;82.10;;;;;;5052630;28;20412;-59
2024/03/10 02:27:29;;;;;;;12.15;7.93;;;7.50;82.10;;;;;;5059899;28;20029;-61
2024/03/10 02:30:12;;;;;;;12.88;8.52;;;7.50;82.00;;;;;;5058199;28;20035;-62
2024/03/10 02:49:04;;;;;;;12.73;7.88;;;7.30;81.40;;;;;;5053664;28;20586;-61
2024/03/10 02:51:30;;;;;;;11.63;8.30;;;7.20;81.20;;;;;;5053466;28;20037;-61
2024/03/10 02:53:55;;;;;;;11.65;8.15;;;7.10;81.40;;;;;;5053865;28;20037;-60
2024/03/10 02:56:25;;;;;;;12.57;8.20;;;7.10;81.60;;;;;;5053781;28;20041;-61
2024/03/10 02:58:50;;;;;;;12.77;8.63;;;7.10;81.70;;;;;;5056708;28;20037;-61
2024/03/10 03:01:18;;;;;;;14.25;8.48;;;7.10;81.70;;;;;;5055274;28;20036;-62
2024/03/10 03:03:44;;;;;;;12.80;8.88;;;7.00;81.70;;;;;;5060822;28;20032;-61
2024/03/10 03:06:10;;;;;;;11.55;7.90;;;7.00;81.70;;;;;;5061650;28;20423;-61
2024/03/10 03:08:36;;;;;;;13.43;8.43;;;7.00;81.70;;;;;;5062097;28;20092;-60
2024/03/10 03:11:02;;;;;;;10.70;7.97;;;7.00;81.70;;;;;;5054943;28;20040;-60
2024/03/10 03:13:28;;;;;;;10.65;7.97;;;6.90;81.60;;;;;;5051649;28;20478;-60
2024/03/10 03:15:53;;;;;;;11.13;8.27;;;6.90;81.70;;;;;;5060695;28;20091;-59
2024/03/10 03:18:19;;;;;;;11.40;7.82;;;6.90;81.70;;;;;;5057963;28;20194;-61
2024/03/10 03:20:44;;;;;;;11.77;8.00;;;6.90;81.80;;;;;;5057697;28;20036;-61
2024/03/10 03:23:10;;;;;;;11.23;7.57;;;6.90;81.90;;;;;;5061361;28;20083;-60
2024/03/10 03:25:36;;;;;;;11.82;8.40;;;6.90;81.90;;;;;;5058649;28;20124;-62
2024/03/10 03:28:01;;;;;;;10.52;7.75;;;6.90;82.00;;;;;;5051298;28;20029;-61
2024/03/10 03:30:27;;;;;;;11.10;8.02;;;6.80;81.90;;;;;;5059487;28;20499;-61
2024/03/10 03:32:54;;;;;;;11.13;8.00;;;6.80;82.00;;;;;;5060481;28;20036;-60
2024/03/10 03:35:20;;;;;;;10.93;8.02;;;6.80;82.30;;;;;;5056039;28;20095;-61
2024/03/10 03:37:46;;;;;;;10.98;8.07;;;6.70;82.50;;;;;;5059259;28;20128;-60
2024/03/10 03:40:15;;;;;;;10.65;8.13;;;6.70;82.60;;;;;;5053167;28;20176;-62
2024/03/10 03:42:41;;;;;;;11.27;8.02;;;6.70;82.70;;;;;;5052987;28;20037;-62
2024/03/10 03:45:07;;;;;;;10.43;7.47;;;6.70;82.80;;;;;;5061746;28;20365;-62
2024/03/10 03:47:33;;;;;;;10.82;7.45;;;6.70;82.90;;;;;;5055795;28;20074;-62
2024/03/10 03:49:59;;;;;;;11.65;7.63;;;6.70;82.90;;;;;;5055755;28;20089;-62
2024/03/10 03:52:25;;;;;;;10.90;8.00;;;6.70;82.80;;;;;;5055394;28;20133;-61
2024/03/10 03:54:51;;;;;;;11.43;7.85;;;6.70;82.80;;;;;;5060365;28;20111;-62
2024/03/10 03:57:17;;;;;;;10.40;7.30;;;6.70;82.90;;;;;;5053176;28;20032;-61
2024/03/10 03:59:43;;;;;;;9.80;7.43;;;6.70;82.90;;;;;;5061039;28;20028;-61
2024/03/10 04:02:09;;;;;;;10.40;7.53;;;6.70;82.90;;;;;;5059852;28;20155;-61
2024/03/10 04:04:35;;;;;;;10.27;7.50;;;6.70;82.90;;;;;;5055494;28;20432;-60
2024/03/10 04:07:01;;;;;;;10.43;7.32;;;6.70;83.00;;;;;;5058147;28;20560;-62
2024/03/10 04:09:27;;;;;;;9.77;7.22;;;6.70;83.00;;;;;;5061503;28;20032;-60
2024/03/10 04:11:52;;;;;;;10.05;6.72;;;6.70;83.00;;;;;;5063848;28;20036;-62
2024/03/10 04:14:18;;;;;;;7.50;6.47;;;6.70;83.00;;;;;;5059446;28;20055;-62
2024/03/10 04:16:54;;;;;;;9.55;6.68;;;6.70;83.10;;;;;;5055631;28;20025;-62
2024/03/10 04:19:20;;;;;;;9.65;6.90;;;6.70;83.10;;;;;;5057945;28;20039;-61
2024/03/10 04:21:47;;;;;;;8.85;6.60;;;6.70;83.10;;;;;;5056218;28;20068;-61
2024/03/10 04:24:12;;;;;;;9.00;6.43;;;6.70;83.20;;;;;;5059352;28;20041;-61
2024/03/10 04:26:42;;;;;;;8.23;6.88;;;6.70;83.30;;;;;;5054821;28;20113;-60
2024/03/10 04:29:08;;;;;;;9.30;6.75;;;6.70;83.40;;;;;;5057426;28;20028;-61
2024/03/10 04:31:34;;;;;;;9.25;6.85;;;6.70;83.40;;;;;;5057834;28;20040;-61
2024/03/10 04:34:00;;;;;;;7.80;6.35;;;6.60;83.30;;;;;;5056748;28;20041;-60
2024/03/10 04:36:28;;;;;;;9.32;6.97;;;6.70;83.40;;;;;;5061978;28;20047;-62
2024/03/10 04:38:55;;;;;;;10.18;6.90;;;6.60;83.30;;;;;;5056324;28;20067;-60
2024/03/10 04:41:21;;;;;;;8.63;7.00;;;6.70;83.40;;;;;;5057575;28;20040;-62
2024/03/10 04:43:47;;;;;;;10.07;7.15;;;6.70;83.40;;;;;;5060196;28;20036;-61
2024/03/10 04:46:12;;;;;;;9.55;6.78;;;6.70;83.50;;;;;;5057216;28;20029;-61
2024/03/10 04:48:38;;;;;;;10.15;6.35;;;6.60;83.50;;;;;;5065300;28;20116;-61
2024/03/10 04:51:04;;;;;;;9.02;6.60;;;6.60;83.30;;;;;;5065213;28;20067;-62
2024/03/10 04:53:29;;;;;;;10.80;6.75;;;6.60;83.20;;;;;;5062974;28;20500;-60
2024/03/10 04:55:55;;;;;;;7.90;6.05;;;6.60;83.00;;;;;;5065092;28;20386;-61
2024/03/10 04:58:22;;;;;;;10.07;6.50;;;6.60;82.80;;;;;;5059520;28;20135;-62
2024/03/10 05:00:48;;;;;;;7.32;6.07;;;6.60;82.80;;;;;;5060175;28;20239;-61
2024/03/10 05:03:15;;;;;;;7.43;6.03;;;6.60;82.70;;;;;;5064800;28;20040;-60
2024/03/10 05:05:40;;;;;;;8.13;6.10;;;6.50;82.60;;;;;;5063757;28;20037;-60
2024/03/10 05:08:08;;;;;;;8.52;5.95;;;6.50;83.00;;;;;;5062700;28;20127;-59
2024/03/10 05:10:34;;;;;;;9.07;6.22;;;6.40;82.70;;;;;;5060129;28;20064;-61
2024/03/10 05:13:00;;;;;;;8.13;6.20;;;6.40;82.80;;;;;;5060686;28;20490;-62
2024/03/10 05:15:26;;;;;;;8.30;6.38;;;6.40;83.00;;;;;;5064153;28;20041;-61
2024/03/10 05:17:52;;;;;;;8.27;6.40;;;6.40;83.00;;;;;;5064633;28;20036;-61
2024/03/10 05:20:18;;;;;;;7.30;5.60;;;6.40;83.00;;;;;;5063055;28;20071;-61
2024/03/10 05:22:45;;;;;;;7.50;6.03;;;6.40;83.00;;;;;;5056234;28;20037;-61
2024/03/10 05:25:13;;;;;;;8.00;5.90;;;6.40;83.00;;;;;;5060132;28;20065;-61
2024/03/10 05:27:41;;;;;;;10.32;6.32;;;6.40;83.00;;;;;;5061059;28;20526;-62
2024/03/10 05:30:07;;;;;;;7.32;5.95;;;6.40;82.90;;;;;;5062543;28;20037;-62
2024/03/10 05:32:33;;;;;;;8.07;5.72;;;6.30;82.70;;;;;;5056492;28;20037;-61
2024/03/10 05:34:59;;;;;;;7.20;5.80;;;6.30;82.80;;;;;;5057097;28;20032;-60
2024/03/10 05:37:25;;;;;;;7.28;6.05;;;6.30;83.00;;;;;;5059388;28;20082;-61
2024/03/10 05:39:50;;;;;;;6.55;5.50;;;6.30;83.10;;;;;;5060451;28;20036;-61
2024/03/10 05:42:16;;;;;;;7.13;5.70;;;6.30;83.10;;;;;;5066728;28;20029;-61
2024/03/10 05:44:42;;;;;;;6.93;5.53;;;6.30;83.00;;;;;;5063495;28;20041;-61
2024/03/10 05:47:07;;;;;;;6.82;5.65;;;6.30;83.00;;;;;;5057901;28;20036;-61
2024/03/10 05:49:33;;;;;;;8.80;6.05;;;6.20;83.00;;;;;;5058273;28;20083;-62
2024/03/10 05:51:59;;;;;;;7.32;5.88;;;6.20;83.20;;;;;;5058662;28;20475;-62
2024/03/10 05:54:25;;;;;;;8.85;6.03;;;6.20;83.20;;;;;;5055702;28;20302;-60
2024/03/10 05:56:51;;;;;;;9.93;6.13;;;6.20;83.20;;;;;;5054745;28;20366;-61
2024/03/10 05:59:16;;;;;;;9.85;7.50;;;6.10;83.20;;;;;;5059662;28;20339;-61
2024/03/10 06:01:45;;;;;;;7.28;5.32;;;6.10;83.20;;;;;;5061939;28;20415;-61
2024/03/10 06:04:11;;;;;;;7.38;5.50;;;6.10;83.40;;;;;;5058472;28;20029;-62
2024/03/10 06:06:38;;;;;;;8.18;5.07;;;6.10;83.50;;;;;;5061151;28;20120;-62
2024/03/10 06:09:05;;;;;;;8.25;5.68;;;6.10;83.90;;;;;;5060861;28;20055;-60
2024/03/10 06:11:33;;;;;;;8.02;5.68;;;6.00;84.00;;;;;;5059131;28;20035;-62
2024/03/10 06:13:59;;;;;;;7.80;5.50;;;6.00;84.00;;;;;;5062413;28;20056;-61
2024/03/10 06:16:25;;;;;;;7.82;5.75;;;6.00;84.10;;;;;;5060584;28;20523;-61
2024/03/10 06:26:54;;;;;;;9.38;5.28;;;6.00;84.40;;;;;;5061787;28;20106;-60
2024/03/10 06:29:24;;;;;;;7.25;5.38;;;6.00;84.30;;;;;;5058205;28;20075;-62
2024/03/10 06:31:50;;;;;;;6.80;5.07;;;6.00;84.50;;;;;;5060853;28;20037;-62
2024/03/10 06:34:15;;;;;;;6.75;5.07;;;6.00;84.50;;;;;;5059783;28;20029;-61
2024/03/10 06:36:41;;;;;;;6.35;5.25;;;6.00;84.60;;;;;;5058172;28;20036;-62
2024/03/10 06:39:08;;;;;;;6.07;5.20;;;6.10;84.70;;;;;;5049264;28;20079;-61
2024/03/10 06:41:34;;;;;;;8.00;5.82;;;6.00;84.80;;;;;;5052511;28;20481;-60
2024/03/10 06:44:00;;;;;;;6.15;5.13;;;6.10;84.90;;;;;;5054342;28;20038;-62
2024/03/10 06:46:29;;;;;;;8.05;5.75;;;6.10;84.90;;;;;;5062765;28;20029;-61
2024/03/10 06:48:55;;;;;;;6.43;5.40;;;6.10;84.90;;;;;;5061393;28;20120;-61
2024/03/10 06:51:24;;;;;;;6.25;5.00;;;6.20;84.90;;;;;;5061281;28;20124;-61
2024/03/10 06:53:50;;;;;;;7.03;4.25;;;6.20;84.70;;;;;;5061538;28;20036;-62
2024/03/10 06:56:15;;;;;;;6.72;4.85;;;6.20;84.70;;;;;;5061850;28;20421;-62
2024/03/10 06:58:43;;;;;;;6.82;5.00;;;6.20;84.70;;;;;;5060352;28;20078;-61
2024/03/10 07:01:10;;;;;;;7.50;4.70;;;6.30;84.70;;;;;;5058893;28;20047;-62
2024/03/10 07:03:35;;;;;;;7.05;5.00;;;6.30;84.70;;;;;;5060480;28;20514;-59
2024/03/10 07:06:01;;;;;;;11.35;6.82;;;6.30;84.70;;;;;;5058175;28;20044;-61
2024/03/10 07:08:27;;;;;;;11.95;7.38;;;6.30;84.70;;;;;;5058591;28;20059;-61
2024/03/10 07:10:53;;;;;;;7.20;4.93;;;6.30;84.70;;;;;;5059553;28;21412;-62
2024/03/10 07:13:18;;;;;;;5.88;4.57;;;6.30;84.60;;;;;;5056720;28;20064;-61
2024/03/10 07:15:46;;;;;;;4.90;4.05;;;6.30;84.60;;;;;;5061717;28;20037;-61
2024/03/10 07:18:12;;;;;;;5.13;4.10;;;6.40;84.60;;;;;;5056648;28;20029;-61
2024/03/10 07:20:39;;;;;;;5.07;3.92;;;6.40;84.60;;;;;;5075521;28;20047;-61
2024/03/10 07:23:05;;;;;;;6.45;3.97;;;6.40;84.60;;;;;;5059347;28;20060;-62
2024/03/10 07:25:30;;;;;;;4.97;3.47;;;6.40;84.50;;;;;;5061860;28;20416;-62
2024/03/10 07:27:56;;;;;;;5.15;3.88;;;6.40;84.50;;;;;;5057951;28;20407;-60
2024/03/10 07:30:22;;;;;;;4.85;3.85;;;6.40;84.60;;;;;;5058349;28;20109;-62
2024/03/10 07:32:48;;;;;;;5.15;3.92;;;6.50;84.70;;;;;;5060503;28;20543;-61
2024/03/10 07:35:14;;;;;;;5.43;3.92;;;6.50;84.70;;;;;;5060763;28;20469;-61
2024/03/10 07:37:41;;;;;;;5.85;3.78;;;6.60;84.70;;;;;;5061392;28;20028;-62
2024/03/10 07:40:15;;;;;;;4.10;3.67;;;6.60;84.90;;;;;;5059210;28;20029;-62
2024/03/10 07:42:42;;;;;;;4.03;3.40;;;6.60;84.90;;;;;;5061398;28;20044;-62
2024/03/10 07:45:09;;;;;;;5.78;3.78;;;6.70;85.00;;;;;;5060748;28;20082;-61
2024/03/10 07:47:43;;;;;;;4.63;3.75;;;6.70;85.10;;;;;;5063614;28;20032;-59
2024/03/10 07:50:11;;;;;;;4.45;3.65;;;6.80;85.30;;;;;;5062472;28;20040;-61
2024/03/10 07:52:41;;;;;;;5.60;3.40;;;6.80;85.20;;;;;;5061861;28;20036;-62
2024/03/10 07:55:07;;;;;;;4.68;3.50;;;6.90;85.20;;;;;;5060996;28;20033;-61
2024/03/10 07:57:39;;;;;;;4.57;3.50;;;6.90;85.30;;;;;;5060324;28;20234;-61
2024/03/10 08:00:11;;;;;;;4.07;3.60;;;7.00;85.50;;;;;;5062752;28;20029;-62
2024/03/10 08:02:43;;;;;;;6.22;3.42;;;7.10;85.50;;;;;;5056994;28;20047;-61
2024/03/10 08:05:10;;;;;;;3.97;3.45;;;7.10;85.30;;;;;;5061081;28;20033;-61
2024/03/10 08:07:40;;;;;;;4.45;3.40;;;7.20;85.10;;;;;;5062925;28;20043;-61
2024/03/10 08:10:12;;;;;;;5.90;3.38;;;7.20;85.00;;;;;;5056580;28;20036;-61
2024/03/10 08:12:38;;;;;;;3.60;3.22;;;7.30;85.10;;;;;;5059068;28;20139;-61
2024/03/10 08:15:06;;;;;;;4.13;3.25;;;7.30;85.00;;;;;;5058581;28;20115;-61
2024/03/10 08:17:32;;;;;;;4.38;3.13;;;7.40;84.80;;;;;;5056114;28;20037;-60
2024/03/10 08:19:58;;;;;;;4.63;3.30;;;7.50;84.80;;;;;;5052926;28;20056;-61
2024/03/10 08:22:25;;;;;;;3.58;2.80;;;7.50;84.60;;;;;;5051567;28;20033;-60
2024/03/10 08:24:51;;;;;;;4.32;3.40;;;7.60;84.70;;;;;;5061273;28;20037;-61
2024/03/10 08:27:17;;;;;;;4.93;3.33;;;7.60;84.60;;;;;;5068033;28;20117;-62
2024/03/10 08:29:42;;;;;;;5.85;3.22;;;7.70;84.60;;;;;;5061418;28;20495;-62
2024/03/10 08:32:08;;;;;;;4.95;3.47;;;7.70;84.30;;;;;;5049678;28;20431;-61
2024/03/10 08:34:33;;;;;;;4.05;3.10;;;7.80;84.10;;;;;;5059271;28;20057;-61
2024/03/10 08:36:59;;;;;;;4.40;2.80;;;7.80;84.00;;;;;;5058307;28;20079;-61
2024/03/10 08:39:28;;;;;;;3.10;2.80;;;7.80;83.80;;;;;;5062840;28;20066;-61
2024/03/10 08:41:54;;;;;;;3.20;2.90;;;7.90;83.80;;;;;;5062567;28;20064;-61
2024/03/10 08:44:19;;;;;;;3.65;3.10;;;7.90;83.80;;;;;;5060519;28;20061;-61
2024/03/10 08:46:46;;;;;;;3.72;2.92;;;7.90;83.70;;;;;;5058445;28;20042;-61
2024/03/10 08:49:12;;;;;;;6.43;3.00;;;8.00;83.60;;;;;;5059821;28;20079;-62
2024/03/10 08:51:39;;;;;;;3.97;3.30;;;8.00;83.50;;;;;;5058614;28;20100;-61
2024/03/10 08:54:07;;;;;;;3.90;3.10;;;8.00;83.50;;;;;;5057326;28;20396;-61
2024/03/10 08:56:36;;;;;;;3.97;2.97;;;8.10;83.50;;;;;;5065670;28;20032;-61
2024/03/10 08:59:01;;;;;;;2.95;2.60;;;8.10;83.30;;;;;;5061227;28;20066;-61
2024/03/10 09:01:27;;;;;;;3.55;2.50;;;8.10;83.20;;;;;;5063061;28;20491;-62
2024/03/10 09:03:55;;;;;;;3.58;2.55;;;8.20;83.10;;;;;;5062252;28;20093;-61
2024/03/10 09:06:24;;;;;;;3.42;3.10;;;8.20;83.00;;;;;;5058971;28;20055;-61
2024/03/10 09:08:50;;;;;;;5.97;3.80;;;8.30;83.00;;;;;;5056766;28;20120;-61
2024/03/10 09:11:15;;;;;;;4.78;3.22;;;8.30;82.90;;;;;;5070671;28;20119;-61
2024/03/10 09:13:41;;;;;;;4.47;3.45;;;8.30;82.90;;;;;;5068838;28;20060;-61
2024/03/10 09:16:10;;;;;;;4.18;3.22;;;8.30;83.10;;;;;;5063032;28;20032;-61
2024/03/10 09:18:36;;;;;;;4.45;3.10;;;8.30;83.10;;;;;;5065830;28;20044;-61
2024/03/10 09:21:03;;;;;;;3.58;3.10;;;8.40;83.00;;;;;;5061872;28;20399;-61
2024/03/10 09:23:29;;;;;;;3.13;2.83;;;8.40;82.80;;;;;;5057541;28;20040;-61
2024/03/10 09:25:55;;;;;;;3.70;2.65;;;8.40;82.50;;;;;;5060714;28;20466;-61
2024/03/10 09:28:22;;;;;;;4.20;3.13;;;8.50;82.50;;;;;;5058963;28;20127;-61
2024/03/10 09:30:50;;;;;;;4.38;3.17;;;8.40;83.30;;;;;;5060694;28;20415;-61
2024/03/10 09:33:17;;;;;;;3.45;3.03;;;8.50;82.10;;;;;;5061279;28;20130;-62
2024/03/10 09:35:43;;;;;;;4.25;3.15;;;8.50;82.40;;;;;;5068675;28;20454;-60
2024/03/10 09:38:10;;;;;;;4.00;3.13;;;8.50;82.80;;;;;;5059753;28;20040;-61
2024/03/10 09:40:35;;;;;;;3.55;3.15;;;8.60;83.10;;;;;;5059840;28;20404;-61
2024/03/10 09:43:06;;;;;;;2.92;2.60;;;8.60;82.60;;;;;;5061990;28;20379;-62
2024/03/10 09:45:40;;;;;;;4.07;3.13;;;8.70;82.30;;;;;;5059719;28;20033;-61
2024/03/10 09:48:09;;;;;;;3.78;3.03;;;8.70;81.70;;;;;;5066678;28;20586;-62
2024/03/10 09:50:35;;;;;;;2.83;2.55;;;8.80;82.00;;;;;;5059562;28;20453;-61
2024/03/10 09:53:01;;;;;;;4.40;2.70;;;8.80;82.00;;;;;;5058695;28;20148;-59
2024/03/10 09:55:27;;;;;;;3.15;2.80;;;8.90;81.50;;;;;;5063871;28;20119;-62
2024/03/10 09:57:54;;;;;;;2.97;2.53;;;9.00;81.60;;;;;;5060163;28;20024;-61
2024/03/10 10:00:25;;;;;;;3.00;2.63;;;9.00;81.60;;;;;;5059623;28;20045;-61
2024/03/10 10:03:02;;;;;;;3.25;2.65;;;9.00;81.30;;;;;;5060819;28;20029;-62
2024/03/10 10:05:38;;;;;;;2.95;2.60;;;9.10;80.90;;;;;;5064628;28;20037;-62
2024/03/10 10:08:10;;;;;;;3.42;2.63;;;9.10;81.20;;;;;;5056393;28;20040;-61
2024/03/10 10:10:36;;;;;;;4.00;2.70;;;9.10;81.30;;;;;;5058661;28;20585;-61
2024/03/10 10:13:03;;;;;;;2.42;2.22;;;9.20;81.10;;;;;;5061309;28;20097;-62
2024/03/10 10:15:35;;;;;;;3.25;2.38;;;9.30;81.00;;;;;;5060298;28;20071;-61
2024/03/10 10:18:02;;;;;;;2.90;2.60;;;9.30;80.50;;;;;;5058649;28;20040;-61
2024/03/10 10:20:32;;;;;;;2.42;2.22;;;9.30;80.30;;;;;;5066235;28;20043;-61
2024/03/10 10:23:06;;;;;;;3.45;2.42;;;9.40;80.60;;;;;;5061557;28;20028;-62
2024/03/10 10:25:35;;;;;;;3.35;2.38;;;9.40;81.40;;;;;;5058420;28;20036;-61
2024/03/10 10:28:02;;;;;;;2.85;2.40;;;9.50;80.60;;;;;;5067934;28;20078;-61
2024/03/10 10:30:29;;;;;;;4.63;2.42;;;9.60;80.00;;;;;;5063321;28;20029;-62
2024/03/10 10:33:14;;;;;;;3.15;2.45;;;9.60;79.00;;;;;;5058332;28;20033;-61
2024/03/10 10:35:45;;;;;;;3.92;2.60;;;9.70;79.40;;;;;;5067472;28;20123;-62
2024/03/10 10:38:12;;;;;;;3.00;2.40;;;9.70;79.70;;;;;;5057128;28;20029;-61
2024/03/10 10:40:41;;;;;;;4.85;2.45;;;9.70;79.60;;;;;;5063462;28;20078;-61
2024/03/10 10:43:08;;;;;;;4.28;2.75;;;9.80;79.30;;;;;;5067244;28;20085;-61
2024/03/10 10:45:35;;;;;;;2.63;2.42;;;9.80;78.70;;;;;;5060769;28;20060;-62
2024/03/10 10:48:01;;;;;;;3.63;2.50;;;9.80;79.10;;;;;;5058763;28;20036;-62
2024/03/10 10:50:34;;;;;;;3.00;2.70;;;9.90;79.30;;;;;;5059291;28;20127;-62
2024/03/10 10:53:01;;;;;;;2.83;2.53;;;9.90;79.30;;;;;;5057170;28;20499;-61
2024/03/10 10:55:28;;;;;;;2.70;2.28;;;10.00;78.70;;;;;;5061677;28;20508;-62
2024/03/10 10:57:57;;;;;;;4.25;2.90;;;10.00;78.00;;;;;;5060889;28;20114;-62
2024/03/10 11:00:29;;;;;;;3.63;2.58;;;10.10;77.40;;;;;;5055902;28;20044;-62
2024/03/10 11:03:14;;;;;;;5.60;2.30;;;10.10;77.70;;;;;;5054136;28;20033;-62
2024/03/10 11:06:06;;;;;;;3.65;2.40;;;10.10;78.00;;;;;;5051673;28;20033;-62
2024/03/10 11:08:32;;;;;;;3.65;2.67;;;10.10;78.00;;;;;;5062383;28;20037;-62
2024/03/10 11:10:58;;;;;;;2.60;2.28;;;10.20;77.80;;;;;;5060072;28;20029;-62
2024/03/10 11:13:25;;;;;;;2.67;2.47;;;10.20;78.00;;;;;;5062205;28;20045;-62
2024/03/10 11:16:11;;;;;;;4.10;2.40;;;10.30;78.20;;;;;;5060990;28;20073;-62
2024/03/10 11:18:38;;;;;;;2.40;2.20;;;10.40;78.20;;;;;;5064514;28;20036;-62
2024/03/10 11:21:13;;;;;;;5.03;2.08;;;10.40;78.20;;;;;;5062898;28;20032;-62
2024/03/10 11:23:44;;;;;;;3.00;2.50;;;10.50;78.20;;;;;;5054959;28;20037;-61
2024/03/10 11:26:17;;;;;;;2.22;2.08;;;10.60;78.00;;;;;;5063833;28;20045;-62
2024/03/10 11:28:48;;;;;;;2.40;2.15;;;10.60;77.90;;;;;;5061104;28;20030;-62
2024/03/10 11:31:39;;;;;;;4.03;2.22;;;10.70;77.90;;;;;;5056607;28;20067;-62
2024/03/10 11:34:07;;;;;;;2.40;2.08;;;10.80;76.90;;;;;;5059971;28;20045;-62
2024/03/10 11:36:38;;;;;;;3.05;2.28;;;10.80;77.30;;;;;;5066483;28;20036;-62
2024/03/10 11:39:05;;;;;;;2.38;2.17;;;10.90;77.00;;;;;;5057938;28;20462;-62
2024/03/10 11:41:32;;;;;;;2.30;2.10;;;11.00;77.30;;;;;;5065512;28;20432;-60
2024/03/10 11:43:58;;;;;;;2.20;1.90;;;11.00;77.50;;;;;;5062102;28;20029;-62
2024/03/10 11:46:26;;;;;;;2.83;2.20;;;11.10;77.40;;;;;;5056744;28;20064;-62
2024/03/10 11:48:55;;;;;;;4.32;2.50;;;11.10;76.90;;;;;;5056976;28;20040;-61
2024/03/10 11:51:38;;;;;;;2.60;2.40;;;11.20;77.10;;;;;;5059726;28;20044;-62
2024/03/10 11:54:04;;;;;;;2.85;2.35;;;11.30;76.60;;;;;;5060076;28;20043;-61
2024/03/10 11:56:33;;;;;;;3.80;2.20;;;11.30;76.00;;;;;;5056646;28;20033;-62
2024/03/10 11:58:59;;;;;;;2.60;2.28;;;11.30;75.30;;;;;;5061343;28;20439;-60
2024/03/10 12:01:26;;;;;;;2.75;2.30;;;11.30;75.60;;;;;;5057568;28;20063;-59
2024/03/10 12:03:54;;;;;;;2.60;2.22;;;11.40;75.20;;;;;;5059692;28;20043;-61
2024/03/10 12:06:20;;;;;;;2.50;2.30;;;11.40;75.40;;;;;;5057071;28;20060;-60
2024/03/10 12:08:46;;;;;;;2.80;2.15;;;11.40;75.30;;;;;;5058876;28;20028;-61
2024/03/10 12:11:12;;;;;;;3.40;2.35;;;11.40;75.10;;;;;;5058998;28;20043;-60
2024/03/10 12:13:50;;;;;;;2.40;2.20;;;11.50;75.10;;;;;;5062097;28;20044;-61
2024/03/10 12:16:16;;;;;;;3.17;2.22;;;11.50;75.00;;;;;;5057110;28;20039;-61
2024/03/10 12:18:42;;;;;;;2.55;2.10;;;11.40;75.30;;;;;;5057085;28;20132;-59
2024/03/10 12:21:10;;;;;;;3.28;2.38;;;11.50;75.10;;;;;;5055115;28;20039;-61
2024/03/10 12:23:37;;;;;;;3.00;2.40;;;11.50;75.20;;;;;;5052490;28;20132;-62
2024/03/10 12:26:11;;;;;;;2.83;2.38;;;11.50;74.40;;;;;;5058396;28;20072;-61
2024/03/10 12:28:37;;;;;;;3.03;2.13;;;11.50;74.20;;;;;;5058994;28;20094;-61
2024/03/10 12:31:14;;;;;;;2.58;1.95;;;11.50;74.50;;;;;;5054382;28;20441;-61
2024/03/10 12:33:46;;;;;;;2.22;1.90;;;11.50;75.10;;;;;;5056429;28;20033;-61
2024/03/10 12:36:14;;;;;;;2.97;2.15;;;11.50;74.70;;;;;;5057462;28;20024;-60
2024/03/10 12:38:40;;;;;;;4.03;2.30;;;11.50;74.40;;;;;;5053912;28;20048;-61
2024/03/10 12:41:12;;;;;;;3.67;2.72;;;11.60;74.30;;;;;;5057955;28;20045;-62
2024/03/10 12:43:38;;;;;;;2.60;2.30;;;11.60;74.40;;;;;;5062190;28;20062;-62
2024/03/10 12:46:04;;;;;;;3.25;2.65;;;11.60;74.60;;;;;;5058988;28;20039;-61
2024/03/10 12:48:30;;;;;;;2.75;2.33;;;11.60;74.60;;;;;;5052906;28;20074;-61
2024/03/10 12:50:56;;;;;;;2.97;2.47;;;11.60;74.20;;;;;;5065562;28;20037;-59
2024/03/10 12:53:22;;;;;;;3.03;2.42;;;11.70;74.40;;;;;;5051601;28;20040;-60
2024/03/10 12:55:48;;;;;;;3.30;2.25;;;11.70;73.90;;;;;;5055886;28;20392;-60
2024/03/10 12:58:16;;;;;;;2.80;2.50;;;11.70;74.00;;;;;;5056653;28;20083;-61
2024/03/10 13:00:42;;;;;;;3.00;2.25;;;11.70;74.00;;;;;;5053638;28;21017;-61
2024/03/10 13:03:10;;;;;;;2.67;2.40;;;11.70;74.30;;;;;;5059124;28;20059;-62
2024/03/10 13:05:35;;;;;;;2.05;1.85;;;11.80;74.20;;;;;;5058965;28;20039;-61
2024/03/10 13:08:01;;;;;;;2.60;2.40;;;11.80;73.90;;;;;;5063710;28;20044;-62
2024/03/10 13:10:30;;;;;;;2.50;2.30;;;11.80;72.80;;;;;;5062446;28;20048;-62
2024/03/10 13:12:56;;;;;;;2.92;2.42;;;11.80;73.00;;;;;;5059362;28;20040;-62
2024/03/10 13:15:23;;;;;;;2.38;2.15;;;11.80;73.20;;;;;;5057796;28;20459;-62